New Joy — D7RB — position and weather

sailwx.info

Track history (hours):
 
Tides and Currents Weather Stations Pressure Air Temp Water Temp Dewpoint Dewpoint Depression Visibility Wind Speed Wind Dir Waves Ship Positions

New Joy

Last reported at 2017-Nov-19 19:08 UTC. Time now 2017-Nov-23 20:43 UTC.
Position S 32°31' E 152°48'.

Length 269 m; draft 8.4 m.

Type: Cargo ship. MMSI: 440814000.

Date/timePositionNaut miles runAvg speedWind from/ knotsBaromVisibWave heightAir tempDewpointWater temp
2017-Nov-19 19:08S 32°31' E 152°48'4 9.5
2017-Nov-19 18:44S 32°33' E 152°45'2 9.3
2017-Nov-19 18:30S 32°35' E 152°44'5 9.2
2017-Nov-19 18:01S 32°39' E 152°40'5 9.0
2017-Nov-19 17:30S 32°42' E 152°37'4 8.8
2017-Nov-19 17:00S 32°45' E 152°33'4 8.9
2017-Nov-19 16:30S 32°49' E 152°30'4 7.7
2017-Nov-19 16:00S 32°50' E 152°25'5 9.5
2017-Nov-19 15:30S 32°52' E 152°21'510.5
2017-Nov-19 15:00S 32°54' E 152°14'510.8
2017-Nov-19 14:30S 32°55' E 152°08'510.7
2017-Nov-19 14:00S 32°57' E 152°02'510.8
2017-Nov-19 13:30S 32°58' E 151°56'5 9.2
2017-Nov-19 13:00S 32°58' E 151°50'4 7.2
2017-Nov-19 12:31S 32°55' E 151°48'2 3.0
2017-Nov-19 12:00S 32°54' E 151°46'1 2.7
2017-Nov-19 11:30S 32°53' E 151°45'0 0.7
2017-Nov-19 11:00S 32°53' E 151°45'0 0.0
2017-Nov-19 09:36S 32°53' E 151°45'0 0.0
2017-Nov-19 09:21S 32°53' E 151°45'0 0.0
2017-Nov-19 07:36S 32°53' E 151°45'0 0.0
2017-Nov-19 07:21S 32°53' E 151°45'0 0.0
2017-Nov-19 06:48S 32°53' E 151°45'0 0.0
2017-Nov-19 03:36S 32°53' E 151°45'0 0.0
2017-Nov-19 03:18S 32°53' E 151°45'0 0.0
2017-Nov-19 02:24S 32°53' E 151°45'0 0.0
2017-Nov-19 01:39S 32°53' E 151°45'0 0.0
2017-Nov-19 01:24S 32°53' E 151°45'0 0.0
2017-Nov-18 23:03S 32°53' E 151°45'0 0.0
2017-Nov-18 22:54S 32°53' E 151°45'0 0.0
2017-Nov-18 22:24S 32°53' E 151°45'0 0.0
2017-Nov-18 22:00S 32°53' E 151°45'0 0.0
2017-Nov-18 21:27S 32°53' E 151°45'0 0.0
2017-Nov-18 21:00S 32°53' E 151°45'0 0.0
2017-Nov-18 20:30S 32°53' E 151°45'0 0.0
2017-Nov-18 20:00S 32°53' E 151°45'0 0.0
2017-Nov-18 19:27S 32°53' E 151°45'0 0.0
2017-Nov-18 19:00S 32°53' E 151°45'0 0.0
2017-Nov-18 18:30S 32°53' E 151°45'0 0.0
2017-Nov-18 17:57S 32°53' E 151°45'0 0.0
2017-Nov-18 17:24S 32°53' E 151°45'0 0.0
2017-Nov-18 15:36S 32°53' E 151°45'0 0.0
2017-Nov-18 15:18S 32°53' E 151°45'0 0.0
2017-Nov-18 14:57S 32°53' E 151°45'0 0.0
2017-Nov-18 14:27S 32°53' E 151°45'0 0.0
2017-Nov-18 14:00S 32°53' E 151°45'0 0.0
2017-Nov-18 13:27S 32°53' E 151°45'0 0.0
2017-Nov-18 12:57S 32°53' E 151°45'0 0.0
2017-Nov-18 12:30S 32°53' E 151°45'0 0.0
2017-Nov-18 12:00S 32°53' E 151°45'0 0.0
2017-Nov-18 11:30S 32°53' E 151°45'0 0.0
2017-Nov-18 10:57S 32°53' E 151°45'0 0.0
2017-Nov-18 10:30S 32°53' E 151°45'0 0.0
2017-Nov-18 10:00S 32°53' E 151°45'0 0.0
2017-Nov-18 09:24S 32°53' E 151°45'0 0.0
2017-Nov-18 08:54S 32°53' E 151°45'0 0.0
2017-Nov-18 08:27S 32°53' E 151°45'0 0.0
2017-Nov-18 08:00S 32°53' E 151°45'0 0.0
2017-Nov-18 07:30S 32°53' E 151°45'0 0.0
2017-Nov-18 06:51S 32°53' E 151°45'0 0.0
2017-Nov-18 06:24S 32°53' E 151°45'0 0.0
2017-Nov-18 06:00S 32°53' E 151°45'0 0.1
2017-Nov-18 05:30S 32°53' E 151°45'0 0.0
2017-Nov-18 05:00S 32°53' E 151°45'0 0.0
2017-Nov-18 04:30S 32°53' E 151°45'0 0.0
2017-Nov-18 04:00S 32°53' E 151°45'0 0.0
2017-Nov-18 03:30S 32°53' E 151°45'0 0.0
2017-Nov-18 03:00S 32°53' E 151°45'0 0.0
2017-Nov-18 02:30S 32°53' E 151°45'0 0.0
2017-Nov-18 02:00S 32°53' E 151°45'0 0.0
2017-Nov-18 01:30S 32°53' E 151°45'0 0.0
2017-Nov-18 01:00S 32°53' E 151°45'0 0.0
2017-Nov-18 00:30S 32°53' E 151°45'0 0.0
2017-Nov-18 00:00S 32°53' E 151°45'0 0.0
2017-Nov-17 23:30S 32°53' E 151°45'0 0.0
2017-Nov-17 23:00S 32°53' E 151°45'0 0.0
2017-Nov-17 22:30S 32°53' E 151°45'0 0.0
2017-Nov-17 21:57S 32°53' E 151°45'0 0.0
2017-Nov-17 21:30S 32°53' E 151°45'0 0.0
2017-Nov-17 21:00S 32°53' E 151°45'0 0.0
2017-Nov-17 20:30S 32°53' E 151°45'0 0.0
2017-Nov-17 20:00S 32°53' E 151°45'0 0.0
2017-Nov-17 19:30S 32°53' E 151°45'0 0.0
2017-Nov-17 19:00S 32°53' E 151°45'0 0.0
2017-Nov-17 18:30S 32°53' E 151°45'0 0.0
2017-Nov-17 18:00S 32°53' E 151°45'0 0.0
2017-Nov-17 17:30S 32°53' E 151°45'0 0.0
2017-Nov-17 17:00S 32°53' E 151°45'0 0.0
2017-Nov-17 16:30S 32°53' E 151°45'0 0.0
2017-Nov-17 16:00S 32°53' E 151°45'0 0.0
2017-Nov-17 15:30S 32°53' E 151°45'0 0.0
2017-Nov-17 15:00S 32°53' E 151°45'0 0.0
2017-Nov-17 14:30S 32°53' E 151°45'0 0.0
2017-Nov-17 14:00S 32°53' E 151°45'0 0.0
2017-Nov-17 13:30S 32°53' E 151°45'0 0.0
2017-Nov-17 13:00S 32°53' E 151°45'0 0.0
2017-Nov-17 12:30S 32°53' E 151°45'0 0.0
2017-Nov-17 12:00S 32°53' E 151°45'0 0.0
2017-Nov-17 11:24S 32°53' E 151°45'0 0.0
2017-Nov-17 11:00S 32°53' E 151°45'0 0.0
2017-Nov-17 10:21S 32°53' E 151°45'0 0.0
2017-Nov-17 09:42S 32°53' E 151°45'0 0.0
2017-Nov-17 08:45S 32°53' E 151°45'0 0.0
2017-Nov-17 08:30S 32°53' E 151°45'0 0.0
2017-Nov-17 08:00S 32°53' E 151°45'0 0.0
2017-Nov-17 07:30S 32°53' E 151°45'0 0.0
2017-Nov-17 07:00S 32°53' E 151°45'0 0.0
2017-Nov-17 06:30S 32°53' E 151°45'0 0.0
2017-Nov-17 06:00S 32°53' E 151°45'0 0.0
2017-Nov-17 05:30S 32°53' E 151°45'0 0.0
2017-Nov-17 05:00S 32°53' E 151°45'0 0.0
2017-Nov-17 04:30S 32°53' E 151°45'0 0.0
2017-Nov-17 04:00S 32°53' E 151°45'0 0.0
2017-Nov-17 03:24S 32°53' E 151°45'0 0.0
2017-Nov-17 03:00S 32°53' E 151°45'0 0.0
2017-Nov-17 02:30S 32°53' E 151°45'0 0.0
2017-Nov-17 02:00S 32°53' E 151°45'0 0.0
2017-Nov-17 01:30S 32°53' E 151°45'0 0.0
2017-Nov-17 01:00S 32°53' E 151°45'0 0.0
2017-Nov-17 00:30S 32°53' E 151°45'0 0.0
2017-Nov-16 23:54S 32°53' E 151°45'0 0.0
2017-Nov-16 23:30S 32°53' E 151°45'0 0.0
2017-Nov-16 23:00S 32°53' E 151°45'0 0.0
2017-Nov-16 22:24S 32°53' E 151°45'0 0.0
2017-Nov-16 22:00S 32°53' E 151°45'0 0.0
2017-Nov-16 21:27S 32°53' E 151°45'0 0.0
2017-Nov-16 20:57S 32°53' E 151°45'0 0.0
2017-Nov-16 20:18S 32°53' E 151°45'0 0.0
2017-Nov-16 20:00S 32°53' E 151°45'0 0.0
2017-Nov-16 19:30S 32°53' E 151°45'0 0.0
2017-Nov-16 19:00S 32°53' E 151°45'0 0.0
2017-Nov-16 18:27S 32°53' E 151°45'0 0.0
2017-Nov-16 18:00S 32°53' E 151°45'0 0.0
2017-Nov-16 17:30S 32°53' E 151°45'0 0.0
2017-Nov-16 16:54S 32°53' E 151°45'0 0.0
2017-Nov-16 16:30S 32°53' E 151°45'0 0.0
2017-Nov-16 16:00S 32°53' E 151°45'0 0.0
2017-Nov-16 15:30S 32°53' E 151°45'0 0.0
2017-Nov-16 15:00S 32°53' E 151°45'0 0.0
2017-Nov-16 14:30S 32°53' E 151°45'0 0.0
2017-Nov-16 14:00S 32°53' E 151°45'0 0.0
2017-Nov-16 13:30S 32°53' E 151°45'0 0.0
2017-Nov-16 13:00S 32°53' E 151°45'0 0.0
2017-Nov-16 12:30S 32°53' E 151°45'0 0.0
2017-Nov-16 11:57S 32°53' E 151°45'0 0.0
2017-Nov-16 11:30S 32°53' E 151°45'0 0.0
2017-Nov-16 11:00S 32°53' E 151°45'0 0.0
2017-Nov-16 10:30S 32°53' E 151°45'0 0.0
2017-Nov-16 09:57S 32°53' E 151°45'0 0.1
2017-Nov-16 09:30S 32°53' E 151°45'0 0.1
2017-Nov-16 09:00S 32°53' E 151°45'0 0.0
2017-Nov-16 08:30S 32°53' E 151°45'0 0.0
2017-Nov-16 08:00S 32°53' E 151°45'0 0.0
2017-Nov-16 07:30S 32°53' E 151°45'0 0.0
2017-Nov-16 07:00S 32°53' E 151°45'0 0.0
2017-Nov-16 06:30S 32°53' E 151°45'0 0.0
2017-Nov-16 06:00S 32°53' E 151°45'0 0.0
2017-Nov-16 05:30S 32°53' E 151°45'0 0.0
2017-Nov-16 05:00S 32°53' E 151°45'0 0.0
2017-Nov-16 04:30S 32°53' E 151°45'0 0.0
2017-Nov-16 04:00S 32°53' E 151°45'0 0.0
2017-Nov-16 03:30S 32°53' E 151°45'0 0.0
2017-Nov-16 03:00S 32°53' E 151°45'0 0.1
2017-Nov-16 02:30S 32°53' E 151°45'0 0.1
2017-Nov-16 00:49S 32°53' E 151°45'0 0.0
2017-Nov-15 23:04S 32°53' E 151°45'0 0.1
2017-Nov-15 22:58S 32°53' E 151°45'0 0.0
2017-Nov-15 22:28S 32°53' E 151°45'0 0.0
2017-Nov-15 21:58S 32°53' E 151°45'0 0.0
2017-Nov-15 21:28S 32°53' E 151°45'0 0.0
2017-Nov-15 20:58S 32°53' E 151°45'0 0.0
2017-Nov-15 20:28S 32°53' E 151°45'0 0.0
2017-Nov-15 19:58S 32°53' E 151°45'0 0.0
2017-Nov-15 19:28S 32°53' E 151°45'0 0.0
2017-Nov-15 18:58S 32°53' E 151°45'0 0.0
2017-Nov-15 18:28S 32°53' E 151°45'0 0.0
2017-Nov-15 17:58S 32°53' E 151°45'0 0.0
2017-Nov-15 17:28S 32°53' E 151°45'0 0.0
2017-Nov-15 16:55S 32°53' E 151°45'0 0.0
2017-Nov-15 16:28S 32°53' E 151°45'0 0.0
2017-Nov-15 15:58S 32°53' E 151°45'0 0.0
2017-Nov-15 15:28S 32°53' E 151°45'0 0.0
2017-Nov-15 14:55S 32°53' E 151°45'0 0.0
2017-Nov-15 14:28S 32°53' E 151°45'0 0.0
2017-Nov-15 13:40S 32°53' E 151°45'0 0.0
2017-Nov-15 13:13S 32°53' E 151°45'0 0.0
2017-Nov-15 12:34S 32°53' E 151°45'0 0.0
2017-Nov-15 12:22S 32°53' E 151°45'0 0.0
2017-Nov-15 11:46S 32°53' E 151°45'0 0.0
2017-Nov-15 11:28S 32°53' E 151°45'0 0.0
2017-Nov-15 10:46S 32°53' E 151°45'0 0.0
2017-Nov-15 10:28S 32°53' E 151°45'0 0.0
2017-Nov-15 09:58S 32°53' E 151°45'0 0.0
2017-Nov-15 09:10S 32°53' E 151°45'0 0.0
2017-Nov-15 08:58S 32°53' E 151°45'0 0.0
2017-Nov-15 08:28S 32°53' E 151°45'0 0.0
2017-Nov-15 07:58S 32°53' E 151°45'0 0.0
2017-Nov-15 07:28S 32°53' E 151°45'0 0.0
2017-Nov-15 06:58S 32°53' E 151°45'0 0.0
2017-Nov-15 06:28S 32°53' E 151°45'0 0.0
2017-Nov-15 05:58S 32°53' E 151°45'0 0.0
2017-Nov-15 05:04S 32°53' E 151°45'0 0.0
2017-Nov-15 04:58S 32°53' E 151°45'0 0.0
2017-Nov-15 04:28S 32°53' E 151°45'0 0.0
2017-Nov-15 03:58S 32°53' E 151°45'0 0.0
2017-Nov-15 03:28S 32°53' E 151°45'0 0.0
2017-Nov-15 02:58S 32°53' E 151°45'0 0.0
2017-Nov-15 02:28S 32°53' E 151°45'0 0.0
2017-Nov-15 01:58S 32°53' E 151°45'0 0.0
2017-Nov-15 01:28S 32°53' E 151°45'0 0.0
2017-Nov-15 00:52S 32°53' E 151°45'0 0.0
2017-Nov-15 00:25S 32°53' E 151°45'0 0.0
2017-Nov-14 23:58S 32°53' E 151°45'0 0.0
2017-Nov-14 23:28S 32°53' E 151°45'0 0.0
2017-Nov-14 22:58S 32°53' E 151°45'0 0.0
2017-Nov-14 22:28S 32°53' E 151°45'0 0.0
2017-Nov-14 21:58S 32°53' E 151°45'0 0.0
2017-Nov-14 21:28S 32°53' E 151°45'0 0.0
2017-Nov-14 20:55S 32°53' E 151°45'0 0.0
2017-Nov-14 20:28S 32°53' E 151°45'0 0.0
2017-Nov-14 19:58S 32°53' E 151°45'0 0.0
2017-Nov-14 19:28S 32°53' E 151°45'0 0.0
2017-Nov-14 18:58S 32°53' E 151°45'0 0.0
2017-Nov-14 18:28S 32°53' E 151°45'0 0.0
2017-Nov-14 17:58S 32°53' E 151°45'0 0.0
2017-Nov-14 17:28S 32°53' E 151°45'0 0.0
2017-Nov-14 16:58S 32°53' E 151°45'0 0.0
2017-Nov-14 16:28S 32°53' E 151°45'0 0.0
2017-Nov-14 15:58S 32°53' E 151°45'0 0.0
2017-Nov-14 15:22S 32°53' E 151°45'0 0.0
2017-Nov-14 14:58S 32°53' E 151°45'0 0.0
2017-Nov-14 14:28S 32°53' E 151°45'0 0.0
2017-Nov-14 13:58S 32°53' E 151°45'0 0.0
2017-Nov-14 13:28S 32°53' E 151°45'0 0.0
2017-Nov-14 12:58S 32°53' E 151°45'0 0.0
2017-Nov-14 12:28S 32°53' E 151°45'0 0.0
2017-Nov-14 11:58S 32°53' E 151°45'0 0.0
2017-Nov-14 11:28S 32°53' E 151°45'0 0.0
2017-Nov-14 10:58S 32°53' E 151°45'0 0.0
2017-Nov-14 10:28S 32°53' E 151°45'0 0.0
2017-Nov-14 09:58S 32°53' E 151°45'0 0.0
2017-Nov-14 09:28S 32°53' E 151°45'0 0.0
2017-Nov-14 08:58S 32°53' E 151°45'0 0.0
2017-Nov-14 08:28S 32°53' E 151°45'0 0.0
2017-Nov-14 07:58S 32°53' E 151°45'0 0.0
2017-Nov-14 07:28S 32°53' E 151°45'0 0.0
2017-Nov-14 06:58S 32°53' E 151°45'0 0.0
2017-Nov-14 06:28S 32°53' E 151°45'0 0.0
2017-Nov-14 05:37S 32°53' E 151°45'0 0.0
2017-Nov-14 05:19S 32°53' E 151°45'0 0.0
2017-Nov-14 04:52S 32°53' E 151°45'0 0.0
2017-Nov-14 04:28S 32°53' E 151°45'1 1.4
2017-Nov-14 04:00S 32°53' E 151°46'2 3.4
2017-Nov-14 03:30S 32°55' E 151°46'3 6.6
2017-Nov-14 03:00S 32°56' E 151°50'4 7.7
2017-Nov-14 02:30S 32°59' E 151°53'3 7.0
2017-Nov-14 02:01S 33°01' E 151°56'612.3
2017-Nov-14 01:30S 33°01' E 152°03'1 1.6
2017-Nov-14 00:59S 33°01' E 152°04'1 1.8
2017-Nov-14 00:29S 33°00' E 152°05'1 1.8
2017-Nov-13 23:59S 33°00' E 152°06'1 1.6
2017-Nov-13 23:29S 33°00' E 152°07'1 1.7
2017-Nov-13 22:59S 33°00' E 152°08'1 1.7
2017-Nov-13 22:29S 33°00' E 152°09'1 1.8
2017-Nov-13 21:59S 33°00' E 152°10'  
Track history (hours):
 
Tides and Currents Weather Stations Pressure Air Temp Water Temp Dewpoint Dewpoint Depression Visibility Wind Speed Wind Dir Waves Ship Positions

New Joy

Last reported at 2017-Nov-19 19:08 UTC. Time now 2017-Nov-23 20:43 UTC.
Position S 32°31' E 152°48'.

Length 269 m; draft 8.4 m.

Type: Cargo ship. MMSI: 440814000.

Date/timePositionNaut miles runAvg speedWind from/ knotsBaromVisibWave heightAir tempDewpointWater temp
2017-Nov-19 19:08S 32°31' E 152°48'4 9.5
2017-Nov-19 18:44S 32°33' E 152°45'2 9.3
2017-Nov-19 18:30S 32°35' E 152°44'5 9.2
2017-Nov-19 18:01S 32°39' E 152°40'5 9.0
2017-Nov-19 17:30S 32°42' E 152°37'4 8.8
2017-Nov-19 17:00S 32°45' E 152°33'4 8.9
2017-Nov-19 16:30S 32°49' E 152°30'4 7.7
2017-Nov-19 16:00S 32°50' E 152°25'5 9.5
2017-Nov-19 15:30S 32°52' E 152°21'510.5
2017-Nov-19 15:00S 32°54' E 152°14'510.8
2017-Nov-19 14:30S 32°55' E 152°08'510.7
2017-Nov-19 14:00S 32°57' E 152°02'510.8
2017-Nov-19 13:30S 32°58' E 151°56'5 9.2
2017-Nov-19 13:00S 32°58' E 151°50'4 7.2
2017-Nov-19 12:31S 32°55' E 151°48'2 3.0
2017-Nov-19 12:00S 32°54' E 151°46'1 2.7
2017-Nov-19 11:30S 32°53' E 151°45'0 0.7
2017-Nov-19 11:00S 32°53' E 151°45'0 0.0
2017-Nov-19 09:36S 32°53' E 151°45'0 0.0
2017-Nov-19 09:21S 32°53' E 151°45'0 0.0
2017-Nov-19 07:36S 32°53' E 151°45'0 0.0
2017-Nov-19 07:21S 32°53' E 151°45'0 0.0
2017-Nov-19 06:48S 32°53' E 151°45'0 0.0
2017-Nov-19 03:36S 32°53' E 151°45'0 0.0
2017-Nov-19 03:18S 32°53' E 151°45'0 0.0
2017-Nov-19 02:24S 32°53' E 151°45'0 0.0
2017-Nov-19 01:39S 32°53' E 151°45'0 0.0
2017-Nov-19 01:24S 32°53' E 151°45'0 0.0
2017-Nov-18 23:03S 32°53' E 151°45'0 0.0
2017-Nov-18 22:54S 32°53' E 151°45'0 0.0
2017-Nov-18 22:24S 32°53' E 151°45'0 0.0
2017-Nov-18 22:00S 32°53' E 151°45'0 0.0
2017-Nov-18 21:27S 32°53' E 151°45'0 0.0
2017-Nov-18 21:00S 32°53' E 151°45'0 0.0
2017-Nov-18 20:30S 32°53' E 151°45'0 0.0
2017-Nov-18 20:00S 32°53' E 151°45'0 0.0
2017-Nov-18 19:27S 32°53' E 151°45'0 0.0
2017-Nov-18 19:00S 32°53' E 151°45'0 0.0
2017-Nov-18 18:30S 32°53' E 151°45'0 0.0
2017-Nov-18 17:57S 32°53' E 151°45'0 0.0
2017-Nov-18 17:24S 32°53' E 151°45'0 0.0
2017-Nov-18 15:36S 32°53' E 151°45'0 0.0
2017-Nov-18 15:18S 32°53' E 151°45'0 0.0
2017-Nov-18 14:57S 32°53' E 151°45'0 0.0
2017-Nov-18 14:27S 32°53' E 151°45'0 0.0
2017-Nov-18 14:00S 32°53' E 151°45'0 0.0
2017-Nov-18 13:27S 32°53' E 151°45'0 0.0
2017-Nov-18 12:57S 32°53' E 151°45'0 0.0
2017-Nov-18 12:30S 32°53' E 151°45'0 0.0
2017-Nov-18 12:00S 32°53' E 151°45'0 0.0
2017-Nov-18 11:30S 32°53' E 151°45'0 0.0
2017-Nov-18 10:57S 32°53' E 151°45'0 0.0
2017-Nov-18 10:30S 32°53' E 151°45'0 0.0
2017-Nov-18 10:00S 32°53' E 151°45'0 0.0
2017-Nov-18 09:24S 32°53' E 151°45'0 0.0
2017-Nov-18 08:54S 32°53' E 151°45'0 0.0
2017-Nov-18 08:27S 32°53' E 151°45'0 0.0
2017-Nov-18 08:00S 32°53' E 151°45'0 0.0
2017-Nov-18 07:30S 32°53' E 151°45'0 0.0
2017-Nov-18 06:51S 32°53' E 151°45'0 0.0
2017-Nov-18 06:24S 32°53' E 151°45'0 0.0
2017-Nov-18 06:00S 32°53' E 151°45'0 0.1
2017-Nov-18 05:30S 32°53' E 151°45'0 0.0
2017-Nov-18 05:00S 32°53' E 151°45'0 0.0
2017-Nov-18 04:30S 32°53' E 151°45'0 0.0
2017-Nov-18 04:00S 32°53' E 151°45'0 0.0
2017-Nov-18 03:30S 32°53' E 151°45'0 0.0
2017-Nov-18 03:00S 32°53' E 151°45'0 0.0
2017-Nov-18 02:30S 32°53' E 151°45'0 0.0
2017-Nov-18 02:00S 32°53' E 151°45'0 0.0
2017-Nov-18 01:30S 32°53' E 151°45'0 0.0
2017-Nov-18 01:00S 32°53' E 151°45'0 0.0
2017-Nov-18 00:30S 32°53' E 151°45'0 0.0
2017-Nov-18 00:00S 32°53' E 151°45'0 0.0
2017-Nov-17 23:30S 32°53' E 151°45'0 0.0
2017-Nov-17 23:00S 32°53' E 151°45'0 0.0
2017-Nov-17 22:30S 32°53' E 151°45'0 0.0
2017-Nov-17 21:57S 32°53' E 151°45'0 0.0
2017-Nov-17 21:30S 32°53' E 151°45'0 0.0
2017-Nov-17 21:00S 32°53' E 151°45'0 0.0
2017-Nov-17 20:30S 32°53' E 151°45'0 0.0
2017-Nov-17 20:00S 32°53' E 151°45'0 0.0
2017-Nov-17 19:30S 32°53' E 151°45'0 0.0
2017-Nov-17 19:00S 32°53' E 151°45'0 0.0
2017-Nov-17 18:30S 32°53' E 151°45'0 0.0
2017-Nov-17 18:00S 32°53' E 151°45'0 0.0
2017-Nov-17 17:30S 32°53' E 151°45'0 0.0
2017-Nov-17 17:00S 32°53' E 151°45'0 0.0
2017-Nov-17 16:30S 32°53' E 151°45'0 0.0
2017-Nov-17 16:00S 32°53' E 151°45'0 0.0
2017-Nov-17 15:30S 32°53' E 151°45'0 0.0
2017-Nov-17 15:00S 32°53' E 151°45'0 0.0
2017-Nov-17 14:30S 32°53' E 151°45'0 0.0
2017-Nov-17 14:00S 32°53' E 151°45'0 0.0
2017-Nov-17 13:30S 32°53' E 151°45'0 0.0
2017-Nov-17 13:00S 32°53' E 151°45'0 0.0
2017-Nov-17 12:30S 32°53' E 151°45'0 0.0
2017-Nov-17 12:00S 32°53' E 151°45'0 0.0
2017-Nov-17 11:24S 32°53' E 151°45'0 0.0
2017-Nov-17 11:00S 32°53' E 151°45'0 0.0
2017-Nov-17 10:21S 32°53' E 151°45'0 0.0
2017-Nov-17 09:42S 32°53' E 151°45'0 0.0
2017-Nov-17 08:45S 32°53' E 151°45'0 0.0
2017-Nov-17 08:30S 32°53' E 151°45'0 0.0
2017-Nov-17 08:00S 32°53' E 151°45'0 0.0
2017-Nov-17 07:30S 32°53' E 151°45'0 0.0
2017-Nov-17 07:00S 32°53' E 151°45'0 0.0
2017-Nov-17 06:30S 32°53' E 151°45'0 0.0
2017-Nov-17 06:00S 32°53' E 151°45'0 0.0
2017-Nov-17 05:30S 32°53' E 151°45'0 0.0
2017-Nov-17 05:00S 32°53' E 151°45'0 0.0
2017-Nov-17 04:30S 32°53' E 151°45'0 0.0
2017-Nov-17 04:00S 32°53' E 151°45'0 0.0
2017-Nov-17 03:24S 32°53' E 151°45'0 0.0
2017-Nov-17 03:00S 32°53' E 151°45'0 0.0
2017-Nov-17 02:30S 32°53' E 151°45'0 0.0
2017-Nov-17 02:00S 32°53' E 151°45'0 0.0
2017-Nov-17 01:30S 32°53' E 151°45'0 0.0
2017-Nov-17 01:00S 32°53' E 151°45'0 0.0
2017-Nov-17 00:30S 32°53' E 151°45'0 0.0
2017-Nov-16 23:54S 32°53' E 151°45'0 0.0
2017-Nov-16 23:30S 32°53' E 151°45'0 0.0
2017-Nov-16 23:00S 32°53' E 151°45'0 0.0
2017-Nov-16 22:24S 32°53' E 151°45'0 0.0
2017-Nov-16 22:00S 32°53' E 151°45'0 0.0
2017-Nov-16 21:27S 32°53' E 151°45'0 0.0
2017-Nov-16 20:57S 32°53' E 151°45'0 0.0
2017-Nov-16 20:18S 32°53' E 151°45'0 0.0
2017-Nov-16 20:00S 32°53' E 151°45'0 0.0
2017-Nov-16 19:30S 32°53' E 151°45'0 0.0
2017-Nov-16 19:00S 32°53' E 151°45'0 0.0
2017-Nov-16 18:27S 32°53' E 151°45'0 0.0
2017-Nov-16 18:00S 32°53' E 151°45'0 0.0
2017-Nov-16 17:30S 32°53' E 151°45'0 0.0
2017-Nov-16 16:54S 32°53' E 151°45'0 0.0
2017-Nov-16 16:30S 32°53' E 151°45'0 0.0
2017-Nov-16 16:00S 32°53' E 151°45'0 0.0
2017-Nov-16 15:30S 32°53' E 151°45'0 0.0
2017-Nov-16 15:00S 32°53' E 151°45'0 0.0
2017-Nov-16 14:30S 32°53' E 151°45'0 0.0
2017-Nov-16 14:00S 32°53' E 151°45'0 0.0
2017-Nov-16 13:30S 32°53' E 151°45'0 0.0
2017-Nov-16 13:00S 32°53' E 151°45'0 0.0
2017-Nov-16 12:30S 32°53' E 151°45'0 0.0
2017-Nov-16 11:57S 32°53' E 151°45'0 0.0
2017-Nov-16 11:30S 32°53' E 151°45'0 0.0
2017-Nov-16 11:00S 32°53' E 151°45'0 0.0
2017-Nov-16 10:30S 32°53' E 151°45'0 0.0
2017-Nov-16 09:57S 32°53' E 151°45'0 0.1
2017-Nov-16 09:30S 32°53' E 151°45'0 0.1
2017-Nov-16 09:00S 32°53' E 151°45'0 0.0
2017-Nov-16 08:30S 32°53' E 151°45'0 0.0
2017-Nov-16 08:00S 32°53' E 151°45'0 0.0
2017-Nov-16 07:30S 32°53' E 151°45'0 0.0
2017-Nov-16 07:00S 32°53' E 151°45'0 0.0
2017-Nov-16 06:30S 32°53' E 151°45'0 0.0
2017-Nov-16 06:00S 32°53' E 151°45'0 0.0
2017-Nov-16 05:30S 32°53' E 151°45'0 0.0
2017-Nov-16 05:00S 32°53' E 151°45'0 0.0
2017-Nov-16 04:30S 32°53' E 151°45'0 0.0
2017-Nov-16 04:00S 32°53' E 151°45'0 0.0
2017-Nov-16 03:30S 32°53' E 151°45'0 0.0
2017-Nov-16 03:00S 32°53' E 151°45'0 0.1
2017-Nov-16 02:30S 32°53' E 151°45'0 0.1
2017-Nov-16 00:49S 32°53' E 151°45'0 0.0
2017-Nov-15 23:04S 32°53' E 151°45'0 0.1
2017-Nov-15 22:58S 32°53' E 151°45'0 0.0
2017-Nov-15 22:28S 32°53' E 151°45'0 0.0
2017-Nov-15 21:58S 32°53' E 151°45'0 0.0
2017-Nov-15 21:28S 32°53' E 151°45'0 0.0
2017-Nov-15 20:58S 32°53' E 151°45'0 0.0
2017-Nov-15 20:28S 32°53' E 151°45'0 0.0
2017-Nov-15 19:58S 32°53' E 151°45'0 0.0
2017-Nov-15 19:28S 32°53' E 151°45'0 0.0
2017-Nov-15 18:58S 32°53' E 151°45'0 0.0
2017-Nov-15 18:28S 32°53' E 151°45'0 0.0
2017-Nov-15 17:58S 32°53' E 151°45'0 0.0
2017-Nov-15 17:28S 32°53' E 151°45'0 0.0
2017-Nov-15 16:55S 32°53' E 151°45'0 0.0
2017-Nov-15 16:28S 32°53' E 151°45'0 0.0
2017-Nov-15 15:58S 32°53' E 151°45'0 0.0
2017-Nov-15 15:28S 32°53' E 151°45'0 0.0
2017-Nov-15 14:55S 32°53' E 151°45'0 0.0
2017-Nov-15 14:28S 32°53' E 151°45'0 0.0
2017-Nov-15 13:40S 32°53' E 151°45'0 0.0
2017-Nov-15 13:13S 32°53' E 151°45'0 0.0
2017-Nov-15 12:34S 32°53' E 151°45'0 0.0
2017-Nov-15 12:22S 32°53' E 151°45'0 0.0
2017-Nov-15 11:46S 32°53' E 151°45'0 0.0
2017-Nov-15 11:28S 32°53' E 151°45'0 0.0
2017-Nov-15 10:46S 32°53' E 151°45'0 0.0
2017-Nov-15 10:28S 32°53' E 151°45'0 0.0
2017-Nov-15 09:58S 32°53' E 151°45'0 0.0
2017-Nov-15 09:10S 32°53' E 151°45'0 0.0
2017-Nov-15 08:58S 32°53' E 151°45'0 0.0
2017-Nov-15 08:28S 32°53' E 151°45'0 0.0
2017-Nov-15 07:58S 32°53' E 151°45'0 0.0
2017-Nov-15 07:28S 32°53' E 151°45'0 0.0
2017-Nov-15 06:58S 32°53' E 151°45'0 0.0
2017-Nov-15 06:28S 32°53' E 151°45'0 0.0
2017-Nov-15 05:58S 32°53' E 151°45'0 0.0
2017-Nov-15 05:04S 32°53' E 151°45'0 0.0
2017-Nov-15 04:58S 32°53' E 151°45'0 0.0
2017-Nov-15 04:28S 32°53' E 151°45'0 0.0
2017-Nov-15 03:58S 32°53' E 151°45'0 0.0
2017-Nov-15 03:28S 32°53' E 151°45'0 0.0
2017-Nov-15 02:58S 32°53' E 151°45'0 0.0
2017-Nov-15 02:28S 32°53' E 151°45'0 0.0
2017-Nov-15 01:58S 32°53' E 151°45'0 0.0
2017-Nov-15 01:28S 32°53' E 151°45'0 0.0
2017-Nov-15 00:52S 32°53' E 151°45'0 0.0
2017-Nov-15 00:25S 32°53' E 151°45'0 0.0
2017-Nov-14 23:58S 32°53' E 151°45'0 0.0
2017-Nov-14 23:28S 32°53' E 151°45'0 0.0
2017-Nov-14 22:58S 32°53' E 151°45'0 0.0
2017-Nov-14 22:28S 32°53' E 151°45'0 0.0
2017-Nov-14 21:58S 32°53' E 151°45'0 0.0
2017-Nov-14 21:28S 32°53' E 151°45'0 0.0
2017-Nov-14 20:55S 32°53' E 151°45'0 0.0
2017-Nov-14 20:28S 32°53' E 151°45'0 0.0
2017-Nov-14 19:58S 32°53' E 151°45'0 0.0
2017-Nov-14 19:28S 32°53' E 151°45'0 0.0
2017-Nov-14 18:58S 32°53' E 151°45'0 0.0
2017-Nov-14 18:28S 32°53' E 151°45'0 0.0
2017-Nov-14 17:58S 32°53' E 151°45'0 0.0
2017-Nov-14 17:28S 32°53' E 151°45'0 0.0
2017-Nov-14 16:58S 32°53' E 151°45'0 0.0
2017-Nov-14 16:28S 32°53' E 151°45'0 0.0
2017-Nov-14 15:58S 32°53' E 151°45'0 0.0
2017-Nov-14 15:22S 32°53' E 151°45'0 0.0
2017-Nov-14 14:58S 32°53' E 151°45'0 0.0
2017-Nov-14 14:28S 32°53' E 151°45'0 0.0
2017-Nov-14 13:58S 32°53' E 151°45'0 0.0
2017-Nov-14 13:28S 32°53' E 151°45'0 0.0
2017-Nov-14 12:58S 32°53' E 151°45'0 0.0
2017-Nov-14 12:28S 32°53' E 151°45'0 0.0
2017-Nov-14 11:58S 32°53' E 151°45'0 0.0
2017-Nov-14 11:28S 32°53' E 151°45'0 0.0
2017-Nov-14 10:58S 32°53' E 151°45'0 0.0
2017-Nov-14 10:28S 32°53' E 151°45'0 0.0
2017-Nov-14 09:58S 32°53' E 151°45'0 0.0
2017-Nov-14 09:28S 32°53' E 151°45'0 0.0
2017-Nov-14 08:58S 32°53' E 151°45'0 0.0
2017-Nov-14 08:28S 32°53' E 151°45'0 0.0
2017-Nov-14 07:58S 32°53' E 151°45'0 0.0
2017-Nov-14 07:28S 32°53' E 151°45'0 0.0
2017-Nov-14 06:58S 32°53' E 151°45'0 0.0
2017-Nov-14 06:28S 32°53' E 151°45'0 0.0
2017-Nov-14 05:37S 32°53' E 151°45'0 0.0
2017-Nov-14 05:19S 32°53' E 151°45'0 0.0
2017-Nov-14 04:52S 32°53' E 151°45'0 0.0
2017-Nov-14 04:28S 32°53' E 151°45'1 1.4
2017-Nov-14 04:00S 32°53' E 151°46'2 3.4
2017-Nov-14 03:30S 32°55' E 151°46'3 6.6
2017-Nov-14 03:00S 32°56' E 151°50'4 7.7
2017-Nov-14 02:30S 32°59' E 151°53'3 7.0
2017-Nov-14 02:01S 33°01' E 151°56'612.3
2017-Nov-14 01:30S 33°01' E 152°03'1 1.6
2017-Nov-14 00:59S 33°01' E 152°04'1 1.8
2017-Nov-14 00:29S 33°00' E 152°05'1 1.8
2017-Nov-13 23:59S 33°00' E 152°06'1 1.6
2017-Nov-13 23:29S 33°00' E 152°07'1 1.7
2017-Nov-13 22:59S 33°00' E 152°08'1 1.7
2017-Nov-13 22:29S 33°00' E 152°09'1 1.8
2017-Nov-13 21:59S 33°00' E 152°10'  

Dump ship's entire track history